KDAL/DAL METAR and TAF weather

Enter ICAO airport designator
Station Type Date Time Source
KDAL METAR 2021/05/12 03:53 UTC NOAA

KDAL 120353Z 36007G24KT 280V030 5SM BR OVC006 15/13 A3011 RMK AO2 RAB26E53 CIG 004V011 SLP191 P0000 T01500133


Station Type Date Time Source
KDAL Decoded METAR 2021/05/12 03:53 UTC NOAA

DALLAS LOVE FIELD, TX, United States (KDAL) 32-51N 096-51W 158M
May 11, 2021 - 11:53 PM EDT / 2021.05.12 0353 UTC
Wind: from the N (360 degrees) at 8 MPH (7 KT) gusting to 28 MPH (24 KT) (direction variable):0
Visibility: 5 mile(s):0
Sky conditions: overcast
Weather: mist
Precipitation last hour: A trace
Temperature: 59.0 F (15.0 C)
Dew Point: 55.9 F (13.3 C)
Relative Humidity: 89%
Pressure (altimeter): 30.11 in. Hg (1019 hPa)
ob: KDAL 120353Z 36007G24KT 280V030 5SM BR OVC006 15/13 A3011 RMK AO2 RAB26E53 CIG 004V011 SLP191 P0000 T01500133
cycle: 4

Station Type Date Time Source
KDAL TAF 2021/05/12 03:12 UTC NOAA

TAF
AMD KDAL 120310Z 1203/1224 02010KT P6SM OVC007
TEMPO 1203/1206 5SM BR
FM120600 03010KT 5SM BR OVC004
FM121500 04011KT P6SM OVC007
FM122100 04011KT P6SM BKN010

Example: see airport list